METAR ET TAF INFORMATION
METAR FOR ENHF
ADDS - METARS form results

(0038 UTC 21 July 2019)
Data provider http://aviationweather.gov/metar/data/
 
METAR text: ENHF 210020Z AUTO 05004KT 9999 NCD 13/07 Q1014 RMK WIND 1254FT 11005KT
Conditions at: ENHF (HAMMERFEST , NO) observed 0020 UTC 21 July 2019
Temperature: 13.0°C (55°F)
Dewpoint: 7.0°C (45°F) [RH = 67%]
Pressure (altimeter): 29.94 inches Hg (1014.0 mb)
Winds: from the NE (50 degrees) at 5 MPH (4 knots; 2.1 m/s)
Visibility: 6 or more miles (10+ km)
Ceiling: at least 12,000 feet AGL
Clouds: sky clear below 12,000 feet AGL
Weather: no significant weather observed at this time

METAR text: ENHF 202350Z AUTO 04005KT 9999 NCD 13/07 Q1014 RMK WIND 1254FT 10006KT
Conditions at: ENHF (HAMMERFEST , NO) observed 2350 UTC 20 July 2019
Temperature: 13.0°C (55°F)
Dewpoint: 7.0°C (45°F) [RH = 67%]
Pressure (altimeter): 29.94 inches Hg (1014.0 mb)
Winds: from the NE (40 degrees) at 6 MPH (5 knots; 2.6 m/s)
Visibility: 6 or more miles (10+ km)
Ceiling: at least 12,000 feet AGL
Clouds: sky clear below 12,000 feet AGL
Weather: no significant weather observed at this time

 AÉROPORT DE AÉROPORT

 INFORMATIONS DE PISTE
Piste 05 Longueur de la piste 2894 ft Largeur de la piste 0 ft
Élévation de la piste 259 ft Seuil de la piste déplacés 0 ft Runway heading 0
Piste 23 Longueur de la piste 2894 ft Largeur de la piste 0 ft
Élévation de la piste 260 ft Seuil de la piste déplacés 0 ft Runway heading 0

 AÉROPORT FRÉQUENCES

 SIDA DE NAVIGATION
Type VOR-DME Nom Hammerfest Féquence 112400 KHZ



Powered by Virtual Airlines Manager [v2.6.2]